createdAt,value
2018-07-27T00:00:28.537Z,55.00
2018-07-27T00:02:56.877Z,54.90
2018-07-27T00:05:25.156Z,54.80
2018-07-27T00:07:53.491Z,54.80
2018-07-27T00:10:21.842Z,55.00
2018-07-27T00:12:50.164Z,54.80
2018-07-27T00:15:18.456Z,55.10
2018-07-27T00:17:46.819Z,55.00
2018-07-27T00:20:15.156Z,55.30
2018-07-27T00:22:43.483Z,55.10
2018-07-27T00:25:11.811Z,55.20
2018-07-27T00:27:40.127Z,55.00
2018-07-27T00:30:08.460Z,55.30
2018-07-27T00:32:36.823Z,55.00
2018-07-27T00:35:05.151Z,55.30
2018-07-27T00:37:33.468Z,55.20
2018-07-27T00:40:01.776Z,55.80
2018-07-27T00:42:30.111Z,55.70
2018-07-27T00:44:58.412Z,55.70
2018-07-27T00:47:26.730Z,56.10
2018-07-27T00:49:55.049Z,55.80
2018-07-27T00:52:23.385Z,56.00
2018-07-27T00:54:51.723Z,56.10
2018-07-27T00:57:20.053Z,55.90
2018-07-27T00:59:48.353Z,56.20
2018-07-27T01:02:16.777Z,56.50
2018-07-27T01:04:45.152Z,56.50
2018-07-27T01:07:13.532Z,56.70
2018-07-27T01:09:41.888Z,57.30
2018-07-27T01:12:10.288Z,59.50
2018-07-27T01:14:38.666Z,60.00
2018-07-27T01:17:07.083Z,60.40
2018-07-27T01:19:35.497Z,60.10
2018-07-27T01:22:03.906Z,60.70
2018-07-27T01:24:32.280Z,59.40
2018-07-27T01:27:00.645Z,60.50
2018-07-27T01:29:29.018Z,59.30
2018-07-27T01:31:57.395Z,60.40
2018-07-27T01:34:25.860Z,60.80
2018-07-27T01:36:54.236Z,60.60
2018-07-27T01:39:22.689Z,61.70
2018-07-27T01:41:51.089Z,61.10
2018-07-27T01:44:19.491Z,60.70
2018-07-27T01:46:47.870Z,60.90
2018-07-27T01:49:16.252Z,61.70
2018-07-27T01:51:44.628Z,60.10
2018-07-27T01:54:13.011Z,59.60
2018-07-27T01:56:41.372Z,59.00
2018-07-27T01:59:09.760Z,58.70
2018-07-27T02:01:38.132Z,58.40
2018-07-27T02:04:06.883Z,58.10
2018-07-27T02:06:35.273Z,58.30
2018-07-27T02:09:05.815Z,58.10
2018-07-27T02:14:02.289Z,58.30
2018-07-27T02:16:30.657Z,58.70
2018-07-27T02:18:59.073Z,58.70
2018-07-27T02:21:27.364Z,58.70
2018-07-27T02:23:55.669Z,58.50
2018-07-27T02:26:23.988Z,58.30
2018-07-27T02:28:52.293Z,57.90
2018-07-27T02:31:20.622Z,57.70
2018-07-27T02:33:48.979Z,57.70
2018-07-27T02:36:17.276Z,57.70
2018-07-27T02:38:45.596Z,57.60
2018-07-27T02:41:14.087Z,57.60
2018-07-27T02:43:42.397Z,57.70
2018-07-27T02:46:10.707Z,57.60
2018-07-27T02:48:39.056Z,57.20
2018-07-27T02:51:07.528Z,57.30
2018-07-27T02:53:35.899Z,57.50
2018-07-27T02:56:04.226Z,57.50
2018-07-27T02:58:32.572Z,57.40
2018-07-27T03:01:00.907Z,57.50
2018-07-27T03:03:29.260Z,57.30
2018-07-27T03:05:57.839Z,57.20
2018-07-27T03:08:26.201Z,57.30
2018-07-27T03:10:54.533Z,57.60
2018-07-27T03:13:22.937Z,57.70
2018-07-27T03:15:51.244Z,57.60
2018-07-27T03:18:19.595Z,57.70
2018-07-27T03:20:47.942Z,57.80
2018-07-27T03:23:16.350Z,57.80
2018-07-27T03:25:44.671Z,57.80
2018-07-27T03:28:13.017Z,58.00
2018-07-27T03:30:41.347Z,58.10
2018-07-27T03:33:09.693Z,58.10
2018-07-27T03:35:38.195Z,58.30
2018-07-27T03:38:06.525Z,58.30
2018-07-27T03:40:34.893Z,58.30
2018-07-27T03:43:03.287Z,58.50
2018-07-27T03:45:31.655Z,58.70
2018-07-27T03:48:00.046Z,58.80
2018-07-27T03:50:28.370Z,58.80
2018-07-27T03:52:56.680Z,58.60
2018-07-27T03:55:24.997Z,58.70
2018-07-27T03:57:53.296Z,58.90
2018-07-27T04:00:21.739Z,59.00
2018-07-27T04:02:50.131Z,58.90
2018-07-27T04:05:18.448Z,59.00
2018-07-27T04:07:46.847Z,59.20
2018-07-27T04:10:15.324Z,59.40
2018-07-27T04:12:43.631Z,59.40
2018-07-27T04:15:11.964Z,59.70
2018-07-27T04:17:44.034Z,59.60
2018-07-27T04:20:12.349Z,59.40
2018-07-27T04:22:40.671Z,59.60
2018-07-27T04:25:09.071Z,59.50
2018-07-27T04:27:37.379Z,59.60
2018-07-27T04:30:05.941Z,59.50
2018-07-27T04:32:34.273Z,59.60
2018-07-27T04:35:02.701Z,59.50
2018-07-27T04:37:31.037Z,59.60
2018-07-27T04:39:59.344Z,59.60
2018-07-27T04:42:27.637Z,60.00
2018-07-27T04:44:55.957Z,59.80
2018-07-27T04:47:24.265Z,59.90
2018-07-27T04:49:52.703Z,59.70
2018-07-27T04:52:21.064Z,59.80
2018-07-27T04:54:49.418Z,59.60
2018-07-27T04:57:17.709Z,59.70
2018-07-27T04:59:46.025Z,59.70
2018-07-27T05:02:14.330Z,59.80
2018-07-27T05:04:42.864Z,59.70
2018-07-27T05:07:11.195Z,59.50
2018-07-27T05:09:39.529Z,59.80
2018-07-27T05:12:07.881Z,59.60
2018-07-27T05:14:36.261Z,59.50
2018-07-27T05:17:04.635Z,59.50
2018-07-27T05:19:32.966Z,59.70
2018-07-27T05:22:01.289Z,59.90
2018-07-27T05:24:29.643Z,59.50
2018-07-27T05:26:57.967Z,59.40
2018-07-27T05:29:26.301Z,59.40
2018-07-27T05:31:54.604Z,59.20
2018-07-27T05:34:23.007Z,59.40
2018-07-27T05:36:51.244Z,59.40
2018-07-27T05:39:19.584Z,59.40
2018-07-27T05:41:47.901Z,59.20
2018-07-27T05:44:16.217Z,59.20
2018-07-27T05:46:44.545Z,59.10
2018-07-27T05:49:12.857Z,58.90
2018-07-27T05:51:41.373Z,58.90
2018-07-27T05:54:09.670Z,58.50
2018-07-27T05:56:37.989Z,58.10
2018-07-27T05:59:06.349Z,57.60
2018-07-27T06:01:34.670Z,56.60
2018-07-27T06:04:03.008Z,56.30
2018-07-27T06:06:31.352Z,56.20
2018-07-27T06:08:59.653Z,55.40
2018-07-27T06:11:28.039Z,54.90
2018-07-27T06:13:56.349Z,54.60
2018-07-27T06:16:24.753Z,53.90
2018-07-27T06:18:53.083Z,53.50
2018-07-27T06:21:21.401Z,53.20
2018-07-27T06:23:49.725Z,53.00
2018-07-27T06:26:18.108Z,53.10
2018-07-27T06:28:46.442Z,52.80
2018-07-27T06:31:14.771Z,52.80
2018-07-27T06:33:43.088Z,52.20
2018-07-27T06:36:11.426Z,52.70
2018-07-27T06:38:39.753Z,52.30
2018-07-27T06:41:08.111Z,52.40
2018-07-27T06:43:36.458Z,52.30
2018-07-27T06:46:04.835Z,52.30
2018-07-27T06:48:33.211Z,52.10
2018-07-27T06:51:01.562Z,51.50
2018-07-27T06:53:29.880Z,51.60
2018-07-27T06:55:58.215Z,51.80
2018-07-27T06:58:26.531Z,50.90
2018-07-27T07:00:54.869Z,51.10
2018-07-27T07:03:23.286Z,50.60
2018-07-27T07:05:51.573Z,50.90
2018-07-27T07:08:19.880Z,50.30
2018-07-27T07:10:48.224Z,50.30
2018-07-27T07:13:16.529Z,50.70
2018-07-27T07:15:44.950Z,50.20
2018-07-27T07:18:13.241Z,49.90
2018-07-27T07:20:41.577Z,49.70
2018-07-27T07:23:10.007Z,49.80
2018-07-27T07:25:38.424Z,50.00
2018-07-27T07:28:06.639Z,49.90
2018-07-27T07:30:34.983Z,49.80
2018-07-27T07:33:03.313Z,49.40
2018-07-27T07:35:31.626Z,49.90
2018-07-27T07:37:59.940Z,49.60
2018-07-27T07:40:28.240Z,49.50
2018-07-27T07:42:56.560Z,49.20
2018-07-27T07:45:24.872Z,48.60
2018-07-27T07:47:53.240Z,48.60
2018-07-27T07:50:21.536Z,48.40
2018-07-27T07:52:49.861Z,48.40
2018-07-27T07:55:18.170Z,48.00
2018-07-27T07:57:46.519Z,48.00
2018-07-27T08:00:14.860Z,47.20
2018-07-27T08:02:43.305Z,47.50
2018-07-27T08:05:11.620Z,46.80
2018-07-27T08:07:39.941Z,46.60
2018-07-27T08:10:08.244Z,47.20
2018-07-27T08:12:36.575Z,47.00
2018-07-27T08:15:05.283Z,47.20
2018-07-27T08:17:33.626Z,46.60
2018-07-27T08:20:01.957Z,47.00
2018-07-27T08:22:30.289Z,46.40
2018-07-27T08:24:58.612Z,46.30
2018-07-27T08:27:26.943Z,45.90
2018-07-27T08:32:23.303Z,45.90
2018-07-27T08:34:51.615Z,44.90
2018-07-27T08:37:19.936Z,45.30
2018-07-27T08:39:48.285Z,44.40
2018-07-27T08:44:44.682Z,45.70
2018-07-27T08:47:13.084Z,44.50
2018-07-27T08:49:41.344Z,43.10
2018-07-27T08:52:09.685Z,43.70
2018-07-27T08:54:37.999Z,44.30
2018-07-27T08:57:06.371Z,44.00
2018-07-27T08:59:34.669Z,43.80
2018-07-27T09:02:02.994Z,43.40
2018-07-27T09:04:31.967Z,43.40
2018-07-27T09:07:00.272Z,43.60
2018-07-27T09:09:28.612Z,44.60
2018-07-27T09:11:56.913Z,44.70
2018-07-27T09:14:25.287Z,44.90
2018-07-27T09:16:53.609Z,44.40
2018-07-27T09:19:22.004Z,44.30
2018-07-27T09:21:50.313Z,44.20
2018-07-27T09:24:18.685Z,43.70
2018-07-27T09:26:47.018Z,43.20
2018-07-27T09:29:15.333Z,43.20
2018-07-27T09:31:43.656Z,42.50
2018-07-27T09:34:12.033Z,42.80
2018-07-27T09:36:40.382Z,42.90
2018-07-27T09:39:09.989Z,42.90
2018-07-27T09:41:38.314Z,40.90
2018-07-27T09:44:06.915Z,42.20
2018-07-27T09:46:35.723Z,42.10
2018-07-27T09:49:04.089Z,42.40
2018-07-27T09:51:32.563Z,42.30
2018-07-27T09:54:00.887Z,42.50
2018-07-27T09:56:29.215Z,42.20
2018-07-27T09:58:57.581Z,41.90
2018-07-27T10:01:27.534Z,41.90
2018-07-27T10:03:56.199Z,42.00
2018-07-27T10:06:24.520Z,41.90
2018-07-27T10:08:52.871Z,41.00
2018-07-27T10:11:21.592Z,40.50
2018-07-27T10:13:49.991Z,40.90
2018-07-27T10:16:18.320Z,41.10
2018-07-27T10:18:47.519Z,40.40
2018-07-27T10:21:15.919Z,39.70
2018-07-27T10:23:44.581Z,40.50
2018-07-27T10:26:12.959Z,40.50
2018-07-27T10:28:41.291Z,40.20
2018-07-27T10:31:09.660Z,40.60
2018-07-27T10:33:37.990Z,40.10
2018-07-27T10:36:06.520Z,39.20
2018-07-27T10:38:34.916Z,39.80
2018-07-27T10:41:03.321Z,40.10
2018-07-27T10:43:31.631Z,39.90
2018-07-27T10:45:59.956Z,39.70
2018-07-27T10:48:28.264Z,40.20
2018-07-27T10:50:56.678Z,39.50
2018-07-27T10:53:24.999Z,40.00
2018-07-27T10:55:53.329Z,40.10
2018-07-27T10:58:21.866Z,39.80
2018-07-27T11:00:50.203Z,40.00
2018-07-27T11:03:18.521Z,39.90
2018-07-27T11:05:46.871Z,39.30
2018-07-27T11:08:15.198Z,39.90
2018-07-27T11:10:43.557Z,40.10
2018-07-27T11:13:11.884Z,40.40
2018-07-27T11:15:40.211Z,40.00
2018-07-27T11:18:08.533Z,40.00
2018-07-27T11:20:37.019Z,39.90
2018-07-27T11:23:05.347Z,39.50
2018-07-27T11:25:33.750Z,39.40
2018-07-27T11:28:02.151Z,39.50
2018-07-27T11:30:30.672Z,39.10
2018-07-27T11:32:58.971Z,39.30
2018-07-27T11:35:27.332Z,38.90
2018-07-27T11:37:55.676Z,38.10
2018-07-27T11:40:24.033Z,39.60
2018-07-27T11:42:52.333Z,39.10
2018-07-27T11:45:20.671Z,38.50
2018-07-27T11:47:48.981Z,38.80
2018-07-27T11:50:17.290Z,38.60
2018-07-27T11:52:45.661Z,38.60
2018-07-27T11:55:14.003Z,39.00
2018-07-27T11:57:42.388Z,38.50
2018-07-27T12:00:10.733Z,38.50
2018-07-27T12:05:15.278Z,38.40
2018-07-27T12:07:43.612Z,38.30
2018-07-27T12:10:11.956Z,38.00
2018-07-27T12:12:40.277Z,38.60
2018-07-27T12:15:08.889Z,37.70
2018-07-27T12:17:36.946Z,37.70
2018-07-27T12:20:05.250Z,36.70
2018-07-27T12:22:33.675Z,37.10
2018-07-27T12:25:01.976Z,37.30
2018-07-27T12:27:30.693Z,37.60
2018-07-27T12:29:59.047Z,37.30
2018-07-27T12:32:27.380Z,37.00
2018-07-27T12:34:55.706Z,38.10
2018-07-27T12:37:24.047Z,38.00
2018-07-27T12:39:52.384Z,38.60
2018-07-27T12:42:20.712Z,37.90
2018-07-27T12:44:49.111Z,37.90
2018-07-27T12:47:17.388Z,37.00
2018-07-27T12:49:45.680Z,37.10
2018-07-27T12:52:13.994Z,36.80
2018-07-27T12:54:42.320Z,36.90
2018-07-27T12:57:10.659Z,37.10
2018-07-27T12:59:38.962Z,36.40
2018-07-27T13:02:07.380Z,36.20
2018-07-27T13:04:35.708Z,36.90
2018-07-27T13:07:04.021Z,37.30
2018-07-27T13:09:32.353Z,36.60
2018-07-27T13:12:00.677Z,37.20
2018-07-27T13:14:28.993Z,36.50
2018-07-27T13:16:57.305Z,36.80
2018-07-27T13:19:25.649Z,36.60
2018-07-27T13:21:54.053Z,36.80
2018-07-27T13:26:50.721Z,36.50
2018-07-27T13:29:19.107Z,37.00
2018-07-27T13:31:49.372Z,37.30
2018-07-27T13:34:39.333Z,36.60
2018-07-27T13:37:07.684Z,36.60
2018-07-27T13:39:36.606Z,36.60
2018-07-27T13:42:05.773Z,36.80
2018-07-27T13:44:35.255Z,36.40
2018-07-27T13:47:04.444Z,36.40
2018-07-27T13:49:32.844Z,36.70
2018-07-27T13:52:01.447Z,36.50
2018-07-27T13:54:30.921Z,36.60
2018-07-27T13:56:59.476Z,36.60
2018-07-27T13:59:27.806Z,36.40
2018-07-27T14:01:56.191Z,36.10
2018-07-27T14:04:24.583Z,36.10
2018-07-27T14:06:54.226Z,35.80
2018-07-27T14:09:22.556Z,36.40
2018-07-27T14:11:50.893Z,35.60
2018-07-27T14:14:19.290Z,35.90
2018-07-27T14:16:47.601Z,36.70
2018-07-27T14:19:16.842Z,36.10
2018-07-27T14:21:45.144Z,36.30
2018-07-27T14:24:13.499Z,36.30
2018-07-27T14:26:41.862Z,36.80
2018-07-27T14:29:10.219Z,36.50
2018-07-27T14:31:38.569Z,35.70
2018-07-27T14:34:07.451Z,36.40
2018-07-27T14:36:35.815Z,36.00
2018-07-27T14:39:06.753Z,35.80
2018-07-27T14:41:35.071Z,36.20
2018-07-27T14:44:03.820Z,36.30
2018-07-27T14:46:32.313Z,36.10
2018-07-27T14:49:00.723Z,36.10
2018-07-27T14:51:29.288Z,35.80
2018-07-27T14:53:57.655Z,35.30
2018-07-27T14:56:25.991Z,35.50
2018-07-27T14:58:54.323Z,35.60
2018-07-27T15:01:22.668Z,35.70
2018-07-27T15:03:51.027Z,35.60
2018-07-27T15:06:19.358Z,36.30
2018-07-27T15:08:47.660Z,36.40
2018-07-27T15:11:15.976Z,35.90
2018-07-27T15:13:44.299Z,36.30
2018-07-27T15:16:12.635Z,35.90
2018-07-27T15:18:40.934Z,36.50
2018-07-27T15:21:09.287Z,36.20
2018-07-27T15:23:37.595Z,36.00
2018-07-27T15:26:05.908Z,36.20
2018-07-27T15:28:34.753Z,36.80
2018-07-27T15:31:03.311Z,37.10
2018-07-27T15:33:31.787Z,36.40
2018-07-27T15:36:00.109Z,36.40
2018-07-27T15:38:28.460Z,36.80
2018-07-27T15:40:56.792Z,36.40
2018-07-27T15:43:25.103Z,36.60
2018-07-27T15:45:53.442Z,37.20
2018-07-27T15:48:22.543Z,35.70
2018-07-27T15:50:50.781Z,36.00
2018-07-27T15:53:19.119Z,36.20
2018-07-27T15:55:47.505Z,36.70
2018-07-27T15:58:15.847Z,36.40
2018-07-27T16:00:44.168Z,37.10
2018-07-27T16:03:12.522Z,36.70
2018-07-27T16:05:40.898Z,37.40
2018-07-27T16:08:09.243Z,36.50
2018-07-27T16:10:37.576Z,37.00
2018-07-27T16:13:06.114Z,36.80
2018-07-27T16:15:34.533Z,36.80
2018-07-27T16:18:02.924Z,36.70
2018-07-27T16:20:31.276Z,37.70
2018-07-27T16:22:59.697Z,36.80
2018-07-27T16:25:28.057Z,36.60
2018-07-27T16:27:56.360Z,37.00
2018-07-27T16:30:24.784Z,37.00
2018-07-27T16:32:53.137Z,37.20
2018-07-27T16:35:21.475Z,37.30
2018-07-27T16:37:49.812Z,36.70
2018-07-27T16:40:18.144Z,37.30
2018-07-27T16:42:46.480Z,37.30
2018-07-27T16:45:14.801Z,37.70
2018-07-27T16:47:43.176Z,37.30
2018-07-27T16:50:11.489Z,37.70
2018-07-27T16:52:39.851Z,37.70
2018-07-27T16:55:08.226Z,37.80
2018-07-27T16:57:36.557Z,37.70
2018-07-27T17:00:05.171Z,37.50
2018-07-27T17:02:33.548Z,37.90
2018-07-27T17:05:02.006Z,37.40
2018-07-27T17:07:30.356Z,37.60
2018-07-27T17:09:58.920Z,37.30
2018-07-27T17:12:27.265Z,37.20
2018-07-27T17:14:55.569Z,37.30
2018-07-27T17:17:23.923Z,37.50
2018-07-27T17:19:52.237Z,37.70
2018-07-27T17:22:20.552Z,37.70
2018-07-27T17:24:48.989Z,37.90
2018-07-27T17:27:17.335Z,37.80
2018-07-27T17:29:45.742Z,38.50
2018-07-27T17:32:14.093Z,38.70
2018-07-27T17:34:42.402Z,38.80
2018-07-27T17:37:10.754Z,39.10
2018-07-27T17:39:39.095Z,39.80
2018-07-27T17:42:07.437Z,39.20
2018-07-27T17:44:35.736Z,38.90
2018-07-27T17:47:04.107Z,39.10
2018-07-27T17:49:32.453Z,38.40
2018-07-27T17:52:00.857Z,39.10
2018-07-27T17:54:29.180Z,39.40
2018-07-27T17:56:57.533Z,39.20
2018-07-27T17:59:25.865Z,39.50
2018-07-27T18:01:54.220Z,39.70
2018-07-27T18:04:22.633Z,40.00
2018-07-27T18:06:50.967Z,39.50
2018-07-27T18:09:19.345Z,40.20
2018-07-27T18:11:47.742Z,40.80
2018-07-27T18:14:16.101Z,41.10
2018-07-27T18:16:44.609Z,40.70
2018-07-27T18:19:12.958Z,40.20
2018-07-27T18:21:41.304Z,40.00
2018-07-27T18:24:09.655Z,40.40
2018-07-27T18:26:38.137Z,40.50
2018-07-27T18:29:06.760Z,41.90
2018-07-27T18:31:35.097Z,42.50
2018-07-27T18:34:03.544Z,42.90
2018-07-27T18:36:31.863Z,42.50
2018-07-27T18:39:00.238Z,43.20
2018-07-27T18:41:28.551Z,43.90
2018-07-27T18:43:56.899Z,43.50
2018-07-27T18:46:25.215Z,44.10
2018-07-27T18:48:53.676Z,45.00
2018-07-27T18:51:22.003Z,45.70
2018-07-27T18:53:50.317Z,45.60
2018-07-27T18:56:18.649Z,45.40
2018-07-27T18:58:46.981Z,44.50
2018-07-27T19:01:15.294Z,45.00
2018-07-27T19:03:43.733Z,47.90
2018-07-27T19:06:12.191Z,48.90
2018-07-27T19:08:40.567Z,49.60
2018-07-27T19:11:08.921Z,49.40
2018-07-27T19:13:37.298Z,49.90
2018-07-27T19:16:06.029Z,48.80
2018-07-27T19:18:34.367Z,50.70
2018-07-27T19:21:02.702Z,50.70
2018-07-27T19:23:31.073Z,50.90
2018-07-27T19:25:59.399Z,51.50
2018-07-27T19:28:27.766Z,51.70
2018-07-27T19:30:56.173Z,51.30
2018-07-27T19:33:24.546Z,51.50
2018-07-27T19:35:52.823Z,51.50
2018-07-27T19:38:21.141Z,51.60
2018-07-27T19:40:49.466Z,51.90
2018-07-27T19:43:17.783Z,52.40
2018-07-27T19:45:46.121Z,53.10
2018-07-27T19:48:14.427Z,53.30
2018-07-27T19:50:42.817Z,53.40
2018-07-27T19:55:39.306Z,53.70
2018-07-27T19:58:07.663Z,53.80
2018-07-27T20:00:36.035Z,52.30
2018-07-27T20:03:04.495Z,54.00
2018-07-27T20:05:33.928Z,53.90
2018-07-27T20:08:02.323Z,54.30
2018-07-27T20:10:30.762Z,54.40
2018-07-27T20:12:59.137Z,54.60
2018-07-27T20:15:27.471Z,54.70
2018-07-27T20:17:55.780Z,53.80
2018-07-27T20:20:24.115Z,52.70
2018-07-27T20:22:52.427Z,53.70
2018-07-27T20:25:20.760Z,51.80
2018-07-27T20:27:49.091Z,52.00
2018-07-27T20:30:17.493Z,51.80
2018-07-27T20:32:45.812Z,52.10
2018-07-27T20:35:14.155Z,51.60
2018-07-27T20:37:42.526Z,52.40
2018-07-27T20:40:10.859Z,50.70
2018-07-27T20:42:39.195Z,50.40
2018-07-27T20:45:07.783Z,50.50
2018-07-27T20:47:36.591Z,49.90
2018-07-27T20:50:05.520Z,49.70
2018-07-27T20:52:33.889Z,50.20
2018-07-27T20:55:02.442Z,49.70
2018-07-27T20:57:30.771Z,50.20
2018-07-27T21:00:01.397Z,50.40
2018-07-27T21:02:29.747Z,50.00
2018-07-27T21:04:58.216Z,50.30
2018-07-27T21:07:26.542Z,49.90
2018-07-27T21:09:54.912Z,50.30
2018-07-27T21:12:23.276Z,49.80
2018-07-27T21:14:51.573Z,49.60
2018-07-27T21:17:19.904Z,49.50
2018-07-27T21:19:48.197Z,50.10
2018-07-27T21:22:16.521Z,50.00
2018-07-27T21:24:44.824Z,50.10
2018-07-27T21:27:13.177Z,50.40
2018-07-27T21:29:41.499Z,50.20
2018-07-27T21:32:09.832Z,50.50
2018-07-27T21:34:38.215Z,50.80
2018-07-27T21:37:06.537Z,51.00
2018-07-27T21:39:34.847Z,51.20
2018-07-27T21:42:03.199Z,51.40
2018-07-27T21:44:31.492Z,51.50
2018-07-27T21:46:59.804Z,51.80
2018-07-27T21:49:28.107Z,52.00
2018-07-27T21:51:56.421Z,52.10
2018-07-27T21:54:24.705Z,52.30
2018-07-27T21:56:53.016Z,52.40
2018-07-27T21:59:21.343Z,52.50
2018-07-27T22:01:49.664Z,52.80
2018-07-27T22:04:18.009Z,52.90
2018-07-27T22:06:46.361Z,53.10
2018-07-27T22:09:14.688Z,53.50
2018-07-27T22:11:43.051Z,53.60
2018-07-27T22:14:11.365Z,53.70
2018-07-27T22:16:39.700Z,54.00
2018-07-27T22:19:08.005Z,54.20
2018-07-27T22:21:36.360Z,54.20
2018-07-27T22:24:04.669Z,54.70
2018-07-27T22:26:33.042Z,54.80
2018-07-27T22:29:01.390Z,54.90
2018-07-27T22:31:29.721Z,55.00
2018-07-27T22:33:58.043Z,55.00
2018-07-27T22:36:26.366Z,55.00
2018-07-27T22:38:54.788Z,55.20
2018-07-27T22:41:23.123Z,55.30
2018-07-27T22:43:51.498Z,55.20
2018-07-27T22:46:19.807Z,55.30
2018-07-27T22:48:48.324Z,55.80
2018-07-27T22:51:16.660Z,55.80
2018-07-27T22:53:45.016Z,56.00
2018-07-27T22:56:13.324Z,56.10
2018-07-27T22:58:41.640Z,56.30
2018-07-27T23:01:09.940Z,56.30
2018-07-27T23:03:38.311Z,56.50
2018-07-27T23:06:06.652Z,56.60
2018-07-27T23:08:35.017Z,56.60
2018-07-27T23:11:03.369Z,56.60
2018-07-27T23:13:31.706Z,56.70
2018-07-27T23:16:00.063Z,56.70
2018-07-27T23:18:28.394Z,56.80
2018-07-27T23:20:56.690Z,56.80
2018-07-27T23:23:25.032Z,56.90
2018-07-27T23:25:53.364Z,57.10
2018-07-27T23:28:21.674Z,57.10
2018-07-27T23:30:49.992Z,57.30
2018-07-27T23:33:18.366Z,57.40
2018-07-27T23:35:46.668Z,57.50
2018-07-27T23:38:15.036Z,57.60
2018-07-27T23:40:43.361Z,57.70
2018-07-27T23:43:11.764Z,57.70
2018-07-27T23:45:40.078Z,57.80
2018-07-27T23:48:08.406Z,57.80
2018-07-27T23:50:36.824Z,58.00
2018-07-27T23:53:05.243Z,58.20
2018-07-27T23:55:33.545Z,58.30
2018-07-27T23:58:01.878Z,58.30
